sensor_id;sensor_type;location;lat;lon;timestamp;P1;durP1;ratioP1;P2;durP2;ratioP2
16354;SDS011;8287;51.644;8.494;2024-03-22T00:00:46;26.30;;;17.85;;
16354;SDS011;8287;51.644;8.494;2024-03-22T00:03:12;29.48;;;18.70;;
16354;SDS011;8287;51.644;8.494;2024-03-22T00:05:38;27.45;;;18.02;;
16354;SDS011;8287;51.644;8.494;2024-03-22T00:08:03;26.20;;;17.17;;
16354;SDS011;8287;51.644;8.494;2024-03-22T00:10:30;28.73;;;18.98;;
16354;SDS011;8287;51.644;8.494;2024-03-22T00:12:56;27.20;;;17.80;;
16354;SDS011;8287;51.644;8.494;2024-03-22T00:15:22;34.60;;;19.60;;
16354;SDS011;8287;51.644;8.494;2024-03-22T00:17:47;30.92;;;20.00;;
16354;SDS011;8287;51.644;8.494;2024-03-22T00:20:14;31.10;;;19.67;;
16354;SDS011;8287;51.644;8.494;2024-03-22T00:22:39;28.35;;;18.05;;
16354;SDS011;8287;51.644;8.494;2024-03-22T00:25:06;30.75;;;18.15;;
16354;SDS011;8287;51.644;8.494;2024-03-22T00:27:32;27.13;;;19.13;;
16354;SDS011;8287;51.644;8.494;2024-03-22T00:29:58;28.70;;;18.98;;
16354;SDS011;8287;51.644;8.494;2024-03-22T00:32:24;30.73;;;19.05;;
16354;SDS011;8287;51.644;8.494;2024-03-22T00:34:50;27.13;;;17.98;;
16354;SDS011;8287;51.644;8.494;2024-03-22T00:37:16;32.25;;;19.02;;
16354;SDS011;8287;51.644;8.494;2024-03-22T00:39:43;30.50;;;19.02;;
16354;SDS011;8287;51.644;8.494;2024-03-22T00:42:09;30.40;;;19.85;;
16354;SDS011;8287;51.644;8.494;2024-03-22T00:44:35;27.27;;;17.90;;
16354;SDS011;8287;51.644;8.494;2024-03-22T00:47:01;28.73;;;19.00;;
16354;SDS011;8287;51.644;8.494;2024-03-22T00:49:28;31.27;;;19.98;;
16354;SDS011;8287;51.644;8.494;2024-03-22T00:51:54;30.33;;;19.60;;
16354;SDS011;8287;51.644;8.494;2024-03-22T00:54:21;30.10;;;18.73;;
16354;SDS011;8287;51.644;8.494;2024-03-22T00:56:47;31.42;;;19.98;;
16354;SDS011;8287;51.644;8.494;2024-03-22T00:59:13;32.17;;;19.60;;
16354;SDS011;8287;51.644;8.494;2024-03-22T01:01:39;30.70;;;19.30;;
16354;SDS011;8287;51.644;8.494;2024-03-22T01:04:05;29.02;;;18.42;;
16354;SDS011;8287;51.644;8.494;2024-03-22T01:06:32;31.27;;;18.60;;
16354;SDS011;8287;51.644;8.494;2024-03-22T01:08:58;32.75;;;19.92;;
16354;SDS011;8287;51.644;8.494;2024-03-22T01:11:24;33.15;;;18.80;;
16354;SDS011;8287;51.644;8.494;2024-03-22T01:13:50;29.15;;;18.75;;
16354;SDS011;8287;51.644;8.494;2024-03-22T01:16:16;31.58;;;20.17;;
16354;SDS011;8287;51.644;8.494;2024-03-22T01:18:42;31.83;;;19.35;;
16354;SDS011;8287;51.644;8.494;2024-03-22T01:21:08;30.60;;;19.58;;
16354;SDS011;8287;51.644;8.494;2024-03-22T01:23:34;32.30;;;20.02;;
16354;SDS011;8287;51.644;8.494;2024-03-22T01:25:59;34.88;;;20.88;;
16354;SDS011;8287;51.644;8.494;2024-03-22T01:28:26;30.30;;;19.35;;
16354;SDS011;8287;51.644;8.494;2024-03-22T01:30:51;32.17;;;20.15;;
16354;SDS011;8287;51.644;8.494;2024-03-22T01:33:18;32.92;;;20.15;;
16354;SDS011;8287;51.644;8.494;2024-03-22T01:35:43;29.77;;;19.80;;
16354;SDS011;8287;51.644;8.494;2024-03-22T01:38:10;32.83;;;18.77;;
16354;SDS011;8287;51.644;8.494;2024-03-22T01:40:35;30.25;;;19.00;;
16354;SDS011;8287;51.644;8.494;2024-03-22T01:43:02;29.55;;;18.23;;
16354;SDS011;8287;51.644;8.494;2024-03-22T01:45:28;27.27;;;17.20;;
16354;SDS011;8287;51.644;8.494;2024-03-22T01:47:58;26.77;;;18.23;;
16354;SDS011;8287;51.644;8.494;2024-03-22T01:50:24;29.58;;;17.40;;
16354;SDS011;8287;51.644;8.494;2024-03-22T01:52:51;30.35;;;17.92;;
16354;SDS011;8287;51.644;8.494;2024-03-22T01:55:17;28.42;;;16.77;;
16354;SDS011;8287;51.644;8.494;2024-03-22T01:57:43;28.88;;;16.90;;
16354;SDS011;8287;51.644;8.494;2024-03-22T02:00:09;27.13;;;15.95;;
16354;SDS011;8287;51.644;8.494;2024-03-22T02:02:36;24.63;;;16.08;;
16354;SDS011;8287;51.644;8.494;2024-03-22T02:05:14;27.10;;;15.85;;
16354;SDS011;8287;51.644;8.494;2024-03-22T02:07:44;26.17;;;16.02;;
16354;SDS011;8287;51.644;8.494;2024-03-22T02:10:09;24.65;;;13.98;;
16354;SDS011;8287;51.644;8.494;2024-03-22T02:12:40;25.60;;;15.00;;
16354;SDS011;8287;51.644;8.494;2024-03-22T02:15:06;22.27;;;15.68;;
16354;SDS011;8287;51.644;8.494;2024-03-22T02:17:34;24.25;;;16.17;;
16354;SDS011;8287;51.644;8.494;2024-03-22T02:20:00;24.23;;;15.73;;
16354;SDS011;8287;51.644;8.494;2024-03-22T02:22:27;22.20;;;14.40;;
16354;SDS011;8287;51.644;8.494;2024-03-22T02:24:53;22.02;;;14.60;;
16354;SDS011;8287;51.644;8.494;2024-03-22T02:27:19;23.83;;;12.98;;
16354;SDS011;8287;51.644;8.494;2024-03-22T02:29:45;25.92;;;14.27;;
16354;SDS011;8287;51.644;8.494;2024-03-22T02:32:11;24.13;;;15.43;;
16354;SDS011;8287;51.644;8.494;2024-03-22T02:34:37;24.80;;;15.57;;
16354;SDS011;8287;51.644;8.494;2024-03-22T02:37:03;23.40;;;14.13;;
16354;SDS011;8287;51.644;8.494;2024-03-22T02:39:29;25.10;;;14.88;;
16354;SDS011;8287;51.644;8.494;2024-03-22T02:41:56;24.58;;;15.18;;
16354;SDS011;8287;51.644;8.494;2024-03-22T02:44:21;23.23;;;13.77;;
16354;SDS011;8287;51.644;8.494;2024-03-22T02:46:48;23.17;;;13.43;;
16354;SDS011;8287;51.644;8.494;2024-03-22T02:49:13;24.35;;;14.70;;
16354;SDS011;8287;51.644;8.494;2024-03-22T02:51:40;27.08;;;14.77;;
16354;SDS011;8287;51.644;8.494;2024-03-22T02:54:05;21.73;;;13.13;;
16354;SDS011;8287;51.644;8.494;2024-03-22T02:56:32;20.88;;;13.27;;
16354;SDS011;8287;51.644;8.494;2024-03-22T02:58:57;24.92;;;13.85;;
16354;SDS011;8287;51.644;8.494;2024-03-22T03:01:24;21.45;;;14.00;;
16354;SDS011;8287;51.644;8.494;2024-03-22T03:03:49;24.80;;;14.15;;
16354;SDS011;8287;51.644;8.494;2024-03-22T03:06:15;27.40;;;14.52;;
16354;SDS011;8287;51.644;8.494;2024-03-22T03:08:43;21.98;;;14.85;;
16354;SDS011;8287;51.644;8.494;2024-03-22T03:11:09;18.70;;;13.38;;
16354;SDS011;8287;51.644;8.494;2024-03-22T03:13:34;24.73;;;13.63;;
16354;SDS011;8287;51.644;8.494;2024-03-22T03:16:02;19.00;;;12.80;;
16354;SDS011;8287;51.644;8.494;2024-03-22T03:18:28;24.02;;;13.25;;
16354;SDS011;8287;51.644;8.494;2024-03-22T03:20:54;23.35;;;13.55;;
16354;SDS011;8287;51.644;8.494;2024-03-22T03:23:20;22.13;;;12.50;;
16354;SDS011;8287;51.644;8.494;2024-03-22T03:25:46;20.00;;;11.35;;
16354;SDS011;8287;51.644;8.494;2024-03-22T03:28:11;19.73;;;12.32;;
16354;SDS011;8287;51.644;8.494;2024-03-22T03:30:39;17.77;;;11.70;;
16354;SDS011;8287;51.644;8.494;2024-03-22T03:33:04;20.40;;;11.68;;
16354;SDS011;8287;51.644;8.494;2024-03-22T03:35:31;20.77;;;12.10;;
16354;SDS011;8287;51.644;8.494;2024-03-22T03:37:56;19.02;;;11.43;;
16354;SDS011;8287;51.644;8.494;2024-03-22T03:40:22;22.88;;;13.35;;
16354;SDS011;8287;51.644;8.494;2024-03-22T03:42:50;20.20;;;12.18;;
16354;SDS011;8287;51.644;8.494;2024-03-22T03:45:17;18.33;;;11.73;;
16354;SDS011;8287;51.644;8.494;2024-03-22T03:47:42;20.13;;;12.77;;
16354;SDS011;8287;51.644;8.494;2024-03-22T03:50:08;19.13;;;12.35;;
16354;SDS011;8287;51.644;8.494;2024-03-22T03:52:34;19.88;;;12.52;;
16354;SDS011;8287;51.644;8.494;2024-03-22T03:55:01;22.40;;;12.93;;
16354;SDS011;8287;51.644;8.494;2024-03-22T03:57:26;20.60;;;11.90;;
16354;SDS011;8287;51.644;8.494;2024-03-22T03:59:53;19.45;;;11.88;;
16354;SDS011;8287;51.644;8.494;2024-03-22T04:02:18;19.13;;;11.80;;
16354;SDS011;8287;51.644;8.494;2024-03-22T04:04:45;20.35;;;11.13;;
16354;SDS011;8287;51.644;8.494;2024-03-22T04:07:10;24.27;;;12.95;;
16354;SDS011;8287;51.644;8.494;2024-03-22T04:09:36;15.55;;;10.70;;
16354;SDS011;8287;51.644;8.494;2024-03-22T04:12:02;18.95;;;11.27;;
16354;SDS011;8287;51.644;8.494;2024-03-22T04:14:28;21.55;;;12.18;;
16354;SDS011;8287;51.644;8.494;2024-03-22T04:16:54;19.27;;;11.82;;
16354;SDS011;8287;51.644;8.494;2024-03-22T04:19:21;19.08;;;12.25;;
16354;SDS011;8287;51.644;8.494;2024-03-22T04:21:46;19.48;;;11.00;;
16354;SDS011;8287;51.644;8.494;2024-03-22T04:24:13;17.83;;;10.90;;
16354;SDS011;8287;51.644;8.494;2024-03-22T04:26:38;17.55;;;10.57;;
16354;SDS011;8287;51.644;8.494;2024-03-22T04:29:05;17.58;;;10.50;;
16354;SDS011;8287;51.644;8.494;2024-03-22T04:31:30;19.25;;;11.60;;
16354;SDS011;8287;51.644;8.494;2024-03-22T04:33:56;16.85;;;11.15;;
16354;SDS011;8287;51.644;8.494;2024-03-22T04:36:22;19.95;;;11.60;;
16354;SDS011;8287;51.644;8.494;2024-03-22T04:38:48;16.05;;;10.57;;
16354;SDS011;8287;51.644;8.494;2024-03-22T04:41:15;18.05;;;11.88;;
16354;SDS011;8287;51.644;8.494;2024-03-22T04:43:41;16.85;;;10.55;;
16354;SDS011;8287;51.644;8.494;2024-03-22T04:46:08;17.48;;;11.18;;
16354;SDS011;8287;51.644;8.494;2024-03-22T04:48:34;17.00;;;11.02;;
16354;SDS011;8287;51.644;8.494;2024-03-22T04:51:00;16.75;;;10.93;;
16354;SDS011;8287;51.644;8.494;2024-03-22T04:53:26;17.75;;;11.32;;
16354;SDS011;8287;51.644;8.494;2024-03-22T04:55:52;18.58;;;11.18;;
16354;SDS011;8287;51.644;8.494;2024-03-22T04:58:18;16.65;;;10.18;;
16354;SDS011;8287;51.644;8.494;2024-03-22T05:00:46;16.25;;;10.52;;
16354;SDS011;8287;51.644;8.494;2024-03-22T05:03:12;17.52;;;9.85;;
16354;SDS011;8287;51.644;8.494;2024-03-22T05:05:39;18.20;;;10.68;;
16354;SDS011;8287;51.644;8.494;2024-03-22T05:08:05;15.63;;;10.85;;
16354;SDS011;8287;51.644;8.494;2024-03-22T05:10:33;15.10;;;9.38;;
16354;SDS011;8287;51.644;8.494;2024-03-22T05:12:58;15.45;;;10.63;;
16354;SDS011;8287;51.644;8.494;2024-03-22T05:15:25;17.90;;;10.50;;
16354;SDS011;8287;51.644;8.494;2024-03-22T05:17:51;18.15;;;11.00;;
16354;SDS011;8287;51.644;8.494;2024-03-22T05:20:19;20.73;;;10.75;;
16354;SDS011;8287;51.644;8.494;2024-03-22T05:22:44;18.80;;;12.27;;
16354;SDS011;8287;51.644;8.494;2024-03-22T05:25:11;18.00;;;10.70;;
16354;SDS011;8287;51.644;8.494;2024-03-22T05:27:37;17.75;;;10.35;;
16354;SDS011;8287;51.644;8.494;2024-03-22T05:30:04;18.33;;;10.50;;
16354;SDS011;8287;51.644;8.494;2024-03-22T05:32:30;15.32;;;10.45;;
16354;SDS011;8287;51.644;8.494;2024-03-22T05:34:56;17.15;;;10.52;;
16354;SDS011;8287;51.644;8.494;2024-03-22T05:37:22;17.73;;;9.80;;
16354;SDS011;8287;51.644;8.494;2024-03-22T05:39:48;17.63;;;10.85;;
16354;SDS011;8287;51.644;8.494;2024-03-22T05:42:14;16.73;;;10.60;;
16354;SDS011;8287;51.644;8.494;2024-03-22T05:44:40;13.88;;;10.05;;
16354;SDS011;8287;51.644;8.494;2024-03-22T05:47:06;20.90;;;11.40;;
16354;SDS011;8287;51.644;8.494;2024-03-22T05:49:32;15.70;;;10.35;;
16354;SDS011;8287;51.644;8.494;2024-03-22T05:51:57;16.90;;;10.27;;
16354;SDS011;8287;51.644;8.494;2024-03-22T05:54:24;19.05;;;11.02;;
16354;SDS011;8287;51.644;8.494;2024-03-22T05:56:50;19.48;;;10.98;;
16354;SDS011;8287;51.644;8.494;2024-03-22T05:59:16;21.48;;;11.50;;
16354;SDS011;8287;51.644;8.494;2024-03-22T06:01:41;19.00;;;11.75;;
16354;SDS011;8287;51.644;8.494;2024-03-22T06:04:08;15.95;;;11.38;;
16354;SDS011;8287;51.644;8.494;2024-03-22T06:06:36;17.67;;;11.50;;
16354;SDS011;8287;51.644;8.494;2024-03-22T06:09:03;17.80;;;11.05;;
16354;SDS011;8287;51.644;8.494;2024-03-22T06:11:32;16.75;;;11.18;;
16354;SDS011;8287;51.644;8.494;2024-03-22T06:13:58;19.10;;;12.40;;
16354;SDS011;8287;51.644;8.494;2024-03-22T06:16:23;20.83;;;11.55;;
16354;SDS011;8287;51.644;8.494;2024-03-22T06:18:50;17.80;;;12.48;;
16354;SDS011;8287;51.644;8.494;2024-03-22T06:21:15;17.33;;;11.23;;
16354;SDS011;8287;51.644;8.494;2024-03-22T06:23:47;17.50;;;11.80;;
16354;SDS011;8287;51.644;8.494;2024-03-22T06:26:15;20.70;;;12.63;;
16354;SDS011;8287;51.644;8.494;2024-03-22T06:28:42;17.15;;;11.77;;
16354;SDS011;8287;51.644;8.494;2024-03-22T06:31:08;20.48;;;12.15;;
16354;SDS011;8287;51.644;8.494;2024-03-22T06:33:34;17.75;;;12.40;;
16354;SDS011;8287;51.644;8.494;2024-03-22T06:36:00;21.42;;;12.55;;
16354;SDS011;8287;51.644;8.494;2024-03-22T06:38:27;21.75;;;12.10;;
16354;SDS011;8287;51.644;8.494;2024-03-22T06:40:53;21.88;;;11.88;;
16354;SDS011;8287;51.644;8.494;2024-03-22T06:43:19;18.17;;;11.60;;
16354;SDS011;8287;51.644;8.494;2024-03-22T06:45:45;16.83;;;11.73;;
16354;SDS011;8287;51.644;8.494;2024-03-22T06:48:11;18.63;;;11.88;;
16354;SDS011;8287;51.644;8.494;2024-03-22T06:50:36;21.95;;;12.45;;
16354;SDS011;8287;51.644;8.494;2024-03-22T06:53:03;20.05;;;11.98;;
16354;SDS011;8287;51.644;8.494;2024-03-22T06:55:29;20.35;;;12.63;;
16354;SDS011;8287;51.644;8.494;2024-03-22T06:57:55;18.27;;;11.70;;
16354;SDS011;8287;51.644;8.494;2024-03-22T07:00:21;19.48;;;11.45;;
16354;SDS011;8287;51.644;8.494;2024-03-22T07:02:47;15.95;;;10.65;;
16354;SDS011;8287;51.644;8.494;2024-03-22T07:05:13;15.60;;;10.73;;
16354;SDS011;8287;51.644;8.494;2024-03-22T07:07:39;17.63;;;10.50;;
16354;SDS011;8287;51.644;8.494;2024-03-22T07:10:05;17.65;;;11.57;;
16354;SDS011;8287;51.644;8.494;2024-03-22T07:12:32;17.25;;;11.25;;
16354;SDS011;8287;51.644;8.494;2024-03-22T07:14:59;15.50;;;9.52;;
16354;SDS011;8287;51.644;8.494;2024-03-22T07:17:26;17.45;;;11.15;;
16354;SDS011;8287;51.644;8.494;2024-03-22T07:19:51;21.30;;;10.32;;
16354;SDS011;8287;51.644;8.494;2024-03-22T07:22:18;11.52;;;9.60;;
16354;SDS011;8287;51.644;8.494;2024-03-22T07:24:44;14.45;;;9.80;;
16354;SDS011;8287;51.644;8.494;2024-03-22T07:27:10;13.73;;;9.20;;
16354;SDS011;8287;51.644;8.494;2024-03-22T07:29:36;12.80;;;10.00;;
16354;SDS011;8287;51.644;8.494;2024-03-22T07:32:02;15.63;;;9.65;;
16354;SDS011;8287;51.644;8.494;2024-03-22T07:34:28;11.52;;;9.45;;
16354;SDS011;8287;51.644;8.494;2024-03-22T07:36:55;15.13;;;8.77;;
16354;SDS011;8287;51.644;8.494;2024-03-22T07:39:20;11.93;;;8.20;;
16354;SDS011;8287;51.644;8.494;2024-03-22T07:41:47;13.75;;;8.07;;
16354;SDS011;8287;51.644;8.494;2024-03-22T07:44:12;12.15;;;8.60;;
16354;SDS011;8287;51.644;8.494;2024-03-22T07:46:39;13.00;;;8.13;;
16354;SDS011;8287;51.644;8.494;2024-03-22T07:49:04;13.55;;;8.88;;
16354;SDS011;8287;51.644;8.494;2024-03-22T07:51:31;13.57;;;8.35;;
16354;SDS011;8287;51.644;8.494;2024-03-22T07:53:56;12.73;;;8.25;;
16354;SDS011;8287;51.644;8.494;2024-03-22T07:56:22;10.63;;;8.00;;
16354;SDS011;8287;51.644;8.494;2024-03-22T07:58:48;9.73;;;8.18;;
16354;SDS011;8287;51.644;8.494;2024-03-22T08:01:14;10.35;;;7.43;;
16354;SDS011;8287;51.644;8.494;2024-03-22T08:03:41;13.68;;;7.35;;
16354;SDS011;8287;51.644;8.494;2024-03-22T08:06:08;9.90;;;7.35;;
16354;SDS011;8287;51.644;8.494;2024-03-22T08:08:33;12.18;;;7.78;;
16354;SDS011;8287;51.644;8.494;2024-03-22T08:10:59;13.25;;;8.00;;
16354;SDS011;8287;51.644;8.494;2024-03-22T08:13:25;11.38;;;7.85;;
16354;SDS011;8287;51.644;8.494;2024-03-22T08:15:51;16.73;;;7.20;;
16354;SDS011;8287;51.644;8.494;2024-03-22T08:18:19;16.08;;;8.60;;
16354;SDS011;8287;51.644;8.494;2024-03-22T08:20:45;11.43;;;7.57;;
16354;SDS011;8287;51.644;8.494;2024-03-22T08:23:10;11.90;;;8.98;;
16354;SDS011;8287;51.644;8.494;2024-03-22T08:25:37;12.98;;;8.25;;
16354;SDS011;8287;51.644;8.494;2024-03-22T08:28:03;14.60;;;9.00;;
16354;SDS011;8287;51.644;8.494;2024-03-22T08:30:30;11.63;;;8.60;;
16354;SDS011;8287;51.644;8.494;2024-03-22T08:32:55;15.27;;;9.27;;
16354;SDS011;8287;51.644;8.494;2024-03-22T08:35:22;13.60;;;8.43;;
16354;SDS011;8287;51.644;8.494;2024-03-22T08:37:47;12.40;;;9.13;;
16354;SDS011;8287;51.644;8.494;2024-03-22T08:40:13;15.38;;;10.00;;
16354;SDS011;8287;51.644;8.494;2024-03-22T08:42:39;13.65;;;9.77;;
16354;SDS011;8287;51.644;8.494;2024-03-22T08:45:07;27.85;;;10.65;;
16354;SDS011;8287;51.644;8.494;2024-03-22T08:47:32;17.08;;;11.00;;
16354;SDS011;8287;51.644;8.494;2024-03-22T08:49:59;22.88;;;9.32;;
16354;SDS011;8287;51.644;8.494;2024-03-22T08:52:25;15.95;;;10.27;;
16354;SDS011;8287;51.644;8.494;2024-03-22T08:54:52;14.02;;;10.68;;
16354;SDS011;8287;51.644;8.494;2024-03-22T08:57:18;13.85;;;10.07;;
16354;SDS011;8287;51.644;8.494;2024-03-22T08:59:44;13.32;;;9.40;;
16354;SDS011;8287;51.644;8.494;2024-03-22T09:02:10;16.27;;;10.35;;
16354;SDS011;8287;51.644;8.494;2024-03-22T09:04:36;16.60;;;9.70;;
16354;SDS011;8287;51.644;8.494;2024-03-22T09:07:02;14.57;;;9.95;;
16354;SDS011;8287;51.644;8.494;2024-03-22T09:09:29;13.77;;;9.57;;
16354;SDS011;8287;51.644;8.494;2024-03-22T09:11:54;12.27;;;9.27;;
16354;SDS011;8287;51.644;8.494;2024-03-22T09:14:21;10.45;;;7.63;;
16354;SDS011;8287;51.644;8.494;2024-03-22T09:16:46;13.50;;;7.15;;
16354;SDS011;8287;51.644;8.494;2024-03-22T09:19:12;12.10;;;8.20;;
16354;SDS011;8287;51.644;8.494;2024-03-22T09:21:38;15.88;;;8.27;;
16354;SDS011;8287;51.644;8.494;2024-03-22T09:24:04;13.05;;;8.02;;
16354;SDS011;8287;51.644;8.494;2024-03-22T09:26:31;12.68;;;8.05;;
16354;SDS011;8287;51.644;8.494;2024-03-22T09:28:58;11.57;;;7.40;;
16354;SDS011;8287;51.644;8.494;2024-03-22T09:31:24;12.13;;;7.95;;
16354;SDS011;8287;51.644;8.494;2024-03-22T09:33:50;15.40;;;9.52;;
16354;SDS011;8287;51.644;8.494;2024-03-22T09:36:16;13.20;;;8.32;;
16354;SDS011;8287;51.644;8.494;2024-03-22T09:38:42;10.52;;;8.52;;
16354;SDS011;8287;51.644;8.494;2024-03-22T09:41:08;15.32;;;9.07;;
16354;SDS011;8287;51.644;8.494;2024-03-22T09:43:35;13.82;;;9.38;;
16354;SDS011;8287;51.644;8.494;2024-03-22T09:46:02;11.40;;;9.27;;
16354;SDS011;8287;51.644;8.494;2024-03-22T09:48:28;13.43;;;9.90;;
16354;SDS011;8287;51.644;8.494;2024-03-22T09:50:54;13.65;;;9.27;;
16354;SDS011;8287;51.644;8.494;2024-03-22T09:53:21;13.50;;;10.43;;
16354;SDS011;8287;51.644;8.494;2024-03-22T09:55:47;14.23;;;9.48;;
16354;SDS011;8287;51.644;8.494;2024-03-22T09:58:15;14.40;;;10.07;;
16354;SDS011;8287;51.644;8.494;2024-03-22T10:00:41;17.27;;;9.43;;
16354;SDS011;8287;51.644;8.494;2024-03-22T10:03:09;14.10;;;10.38;;
16354;SDS011;8287;51.644;8.494;2024-03-22T10:05:35;15.55;;;10.45;;
16354;SDS011;8287;51.644;8.494;2024-03-22T10:08:05;16.77;;;10.55;;
16354;SDS011;8287;51.644;8.494;2024-03-22T10:10:31;19.27;;;11.35;;
16354;SDS011;8287;51.644;8.494;2024-03-22T10:13:01;20.75;;;12.07;;
16354;SDS011;8287;51.644;8.494;2024-03-22T10:15:28;14.88;;;11.13;;
16354;SDS011;8287;51.644;8.494;2024-03-22T10:17:56;14.02;;;10.10;;
16354;SDS011;8287;51.644;8.494;2024-03-22T10:20:22;18.02;;;11.52;;
16354;SDS011;8287;51.644;8.494;2024-03-22T10:22:48;16.60;;;10.70;;
16354;SDS011;8287;51.644;8.494;2024-03-22T10:25:19;15.13;;;11.10;;
16354;SDS011;8287;51.644;8.494;2024-03-22T10:27:46;21.02;;;11.68;;
16354;SDS011;8287;51.644;8.494;2024-03-22T10:30:11;17.05;;;11.23;;
16354;SDS011;8287;51.644;8.494;2024-03-22T10:32:41;18.15;;;11.40;;
16354;SDS011;8287;51.644;8.494;2024-03-22T10:35:07;15.98;;;10.88;;
16354;SDS011;8287;51.644;8.494;2024-03-22T10:37:38;16.55;;;11.32;;
16354;SDS011;8287;51.644;8.494;2024-03-22T10:40:04;18.83;;;11.73;;
16354;SDS011;8287;51.644;8.494;2024-03-22T10:42:37;15.85;;;11.38;;
16354;SDS011;8287;51.644;8.494;2024-03-22T10:45:06;16.23;;;11.18;;
16354;SDS011;8287;51.644;8.494;2024-03-22T10:47:34;13.75;;;11.15;;
16354;SDS011;8287;51.644;8.494;2024-03-22T10:50:05;15.02;;;11.05;;
16354;SDS011;8287;51.644;8.494;2024-03-22T10:52:38;15.05;;;12.00;;
16354;SDS011;8287;51.644;8.494;2024-03-22T10:55:08;17.75;;;11.35;;
16354;SDS011;8287;51.644;8.494;2024-03-22T10:57:42;16.60;;;11.77;;
16354;SDS011;8287;51.644;8.494;2024-03-22T11:00:08;16.08;;;9.98;;
16354;SDS011;8287;51.644;8.494;2024-03-22T11:02:36;15.50;;;10.13;;
16354;SDS011;8287;51.644;8.494;2024-03-22T11:05:03;15.13;;;10.23;;
16354;SDS011;8287;51.644;8.494;2024-03-22T11:07:30;15.05;;;10.65;;
16354;SDS011;8287;51.644;8.494;2024-03-22T11:09:56;17.73;;;11.13;;
16354;SDS011;8287;51.644;8.494;2024-03-22T11:12:24;15.32;;;11.02;;
16354;SDS011;8287;51.644;8.494;2024-03-22T11:14:53;15.82;;;9.63;;
16354;SDS011;8287;51.644;8.494;2024-03-22T11:17:20;17.42;;;10.23;;
16354;SDS011;8287;51.644;8.494;2024-03-22T11:19:48;16.17;;;9.70;;
16354;SDS011;8287;51.644;8.494;2024-03-22T11:22:14;14.48;;;9.65;;
16354;SDS011;8287;51.644;8.494;2024-03-22T11:24:40;13.77;;;9.00;;
16354;SDS011;8287;51.644;8.494;2024-03-22T11:27:07;14.75;;;10.57;;
16354;SDS011;8287;51.644;8.494;2024-03-22T11:29:34;17.25;;;11.07;;
16354;SDS011;8287;51.644;8.494;2024-03-22T11:32:00;14.45;;;10.70;;
16354;SDS011;8287;51.644;8.494;2024-03-22T11:34:26;17.20;;;10.15;;
16354;SDS011;8287;51.644;8.494;2024-03-22T11:36:53;11.98;;;9.77;;
16354;SDS011;8287;51.644;8.494;2024-03-22T11:39:19;15.40;;;10.18;;
16354;SDS011;8287;51.644;8.494;2024-03-22T11:41:45;11.15;;;8.98;;
16354;SDS011;8287;51.644;8.494;2024-03-22T11:44:14;16.15;;;9.65;;
16354;SDS011;8287;51.644;8.494;2024-03-22T11:46:43;11.90;;;9.40;;
16354;SDS011;8287;51.644;8.494;2024-03-22T11:49:09;17.80;;;9.90;;
16354;SDS011;8287;51.644;8.494;2024-03-22T11:51:35;14.32;;;9.13;;
16354;SDS011;8287;51.644;8.494;2024-03-22T11:54:02;11.15;;;8.80;;
16354;SDS011;8287;51.644;8.494;2024-03-22T11:56:29;14.77;;;9.13;;
16354;SDS011;8287;51.644;8.494;2024-03-22T11:59:00;10.57;;;8.43;;
16354;SDS011;8287;51.644;8.494;2024-03-22T12:01:28;15.30;;;8.68;;
16354;SDS011;8287;51.644;8.494;2024-03-22T12:03:54;11.23;;;8.10;;
16354;SDS011;8287;51.644;8.494;2024-03-22T12:06:20;10.48;;;7.22;;
16354;SDS011;8287;51.644;8.494;2024-03-22T12:08:46;12.80;;;8.13;;
16354;SDS011;8287;51.644;8.494;2024-03-22T12:11:13;11.13;;;7.90;;
16354;SDS011;8287;51.644;8.494;2024-03-22T12:13:39;13.93;;;7.28;;
16354;SDS011;8287;51.644;8.494;2024-03-22T12:16:05;17.98;;;6.75;;
16354;SDS011;8287;51.644;8.494;2024-03-22T12:18:32;12.50;;;7.25;;
16354;SDS011;8287;51.644;8.494;2024-03-22T12:20:59;9.30;;;6.93;;
16354;SDS011;8287;51.644;8.494;2024-03-22T12:23:24;15.63;;;7.55;;
16354;SDS011;8287;51.644;8.494;2024-03-22T12:25:51;9.15;;;6.97;;
16354;SDS011;8287;51.644;8.494;2024-03-22T12:28:17;11.02;;;7.25;;
16354;SDS011;8287;51.644;8.494;2024-03-22T12:30:44;10.40;;;7.25;;
16354;SDS011;8287;51.644;8.494;2024-03-22T12:33:10;10.40;;;7.20;;
16354;SDS011;8287;51.644;8.494;2024-03-22T12:35:36;13.35;;;7.63;;
16354;SDS011;8287;51.644;8.494;2024-03-22T12:38:04;12.50;;;8.02;;
16354;SDS011;8287;51.644;8.494;2024-03-22T12:40:30;10.35;;;7.35;;
16354;SDS011;8287;51.644;8.494;2024-03-22T12:42:57;13.02;;;8.05;;
16354;SDS011;8287;51.644;8.494;2024-03-22T12:45:24;11.32;;;7.80;;
16354;SDS011;8287;51.644;8.494;2024-03-22T12:47:50;15.10;;;8.32;;
16354;SDS011;8287;51.644;8.494;2024-03-22T12:50:17;11.60;;;8.38;;
16354;SDS011;8287;51.644;8.494;2024-03-22T12:52:42;10.95;;;7.38;;
16354;SDS011;8287;51.644;8.494;2024-03-22T12:55:09;12.63;;;7.15;;
16354;SDS011;8287;51.644;8.494;2024-03-22T12:57:35;11.43;;;7.53;;
16354;SDS011;8287;51.644;8.494;2024-03-22T13:00:02;11.70;;;7.85;;
16354;SDS011;8287;51.644;8.494;2024-03-22T13:02:28;15.77;;;8.18;;
16354;SDS011;8287;51.644;8.494;2024-03-22T13:04:57;10.43;;;8.18;;
16354;SDS011;8287;51.644;8.494;2024-03-22T13:07:23;11.90;;;7.72;;
16354;SDS011;8287;51.644;8.494;2024-03-22T13:09:50;13.45;;;9.23;;
16354;SDS011;8287;51.644;8.494;2024-03-22T13:12:16;14.15;;;9.25;;
16354;SDS011;8287;51.644;8.494;2024-03-22T13:14:42;13.07;;;9.65;;
16354;SDS011;8287;51.644;8.494;2024-03-22T13:17:09;13.15;;;9.05;;
16354;SDS011;8287;51.644;8.494;2024-03-22T13:19:35;13.55;;;9.23;;
16354;SDS011;8287;51.644;8.494;2024-03-22T13:22:01;11.25;;;8.60;;
16354;SDS011;8287;51.644;8.494;2024-03-22T13:24:27;12.30;;;8.90;;
16354;SDS011;8287;51.644;8.494;2024-03-22T13:26:53;13.32;;;9.23;;
16354;SDS011;8287;51.644;8.494;2024-03-22T13:29:19;12.40;;;8.38;;
16354;SDS011;8287;51.644;8.494;2024-03-22T13:31:45;10.98;;;8.00;;
16354;SDS011;8287;51.644;8.494;2024-03-22T13:34:11;11.93;;;8.07;;
16354;SDS011;8287;51.644;8.494;2024-03-22T13:36:38;12.60;;;9.35;;
16354;SDS011;8287;51.644;8.494;2024-03-22T13:39:03;12.20;;;8.75;;
16354;SDS011;8287;51.644;8.494;2024-03-22T13:41:30;10.70;;;8.38;;
16354;SDS011;8287;51.644;8.494;2024-03-22T13:43:58;12.80;;;8.82;;
16354;SDS011;8287;51.644;8.494;2024-03-22T13:46:28;16.35;;;10.18;;
16354;SDS011;8287;51.644;8.494;2024-03-22T13:48:53;14.65;;;11.55;;
16354;SDS011;8287;51.644;8.494;2024-03-22T13:51:21;17.92;;;11.73;;
16354;SDS011;8287;51.644;8.494;2024-03-22T13:53:46;17.48;;;12.20;;
16354;SDS011;8287;51.644;8.494;2024-03-22T13:56:13;15.82;;;11.25;;
16354;SDS011;8287;51.644;8.494;2024-03-22T13:58:38;14.68;;;11.63;;
16354;SDS011;8287;51.644;8.494;2024-03-22T14:01:04;15.48;;;11.90;;
16354;SDS011;8287;51.644;8.494;2024-03-22T14:03:30;14.43;;;10.80;;
16354;SDS011;8287;51.644;8.494;2024-03-22T14:05:56;18.23;;;12.77;;
16354;SDS011;8287;51.644;8.494;2024-03-22T14:08:22;15.20;;;11.32;;
16354;SDS011;8287;51.644;8.494;2024-03-22T14:10:48;16.55;;;11.32;;
16354;SDS011;8287;51.644;8.494;2024-03-22T14:13:14;17.67;;;12.48;;
16354;SDS011;8287;51.644;8.494;2024-03-22T14:15:40;17.58;;;13.13;;
16354;SDS011;8287;51.644;8.494;2024-03-22T14:18:06;17.10;;;13.60;;
16354;SDS011;8287;51.644;8.494;2024-03-22T14:20:33;18.15;;;12.05;;
16354;SDS011;8287;51.644;8.494;2024-03-22T14:22:58;15.13;;;11.77;;
16354;SDS011;8287;51.644;8.494;2024-03-22T14:25:25;18.80;;;13.30;;
16354;SDS011;8287;51.644;8.494;2024-03-22T14:27:52;21.58;;;13.10;;
16354;SDS011;8287;51.644;8.494;2024-03-22T14:30:18;18.42;;;13.35;;
16354;SDS011;8287;51.644;8.494;2024-03-22T14:32:44;22.67;;;12.75;;